METAR AND TAF INFORMATION
METAR FOR ORMM
ADDS - METARS form results

(1637 UTC 20 June 2018)
Data provider http://aviationweather.gov/adds/metars/
 
Forecast for: ORMM (BASRAH/MAGAL , IQ)
Text: TAF ORMM 201000Z 2012/2112 30025KT CAVOK
Forecast period: 1200 UTC 20 June 2018 to 1200 UTC 21 June 2018
Forecast type: FROM: standard forecast or significant change
Winds: from the WNW (300 degrees) at 29 MPH (25 knots; 13.0 m/s)
Visibility: 6 or more miles (10+ km)
Clouds: not forecast
Weather: NSW  (no significant weather)
Text: TEMPO 2014/2018 6000 NSC
Forecast period: 1400 to 1800 UTC 20 June 2018
Forecast type: TEMPORARY: The following changes expected for less than half the time period
Visibility: 4 miles (6 km)
Weather: no significant weather forecast for this period

 AIRPORT MAP

 RUNWAY INFORMATION
Runway 14 Runway length 13124 ft Runway width 148 ft
Runway elevation 10 ft Runway displaced threshold 0 ft Runway heading 138
Runway 32 Runway length 13124 ft Runway width 148 ft
Runway elevation 10 ft Runway displaced threshold 0 ft Runway heading 318

 AIRPORT FREQUENCIES
Type APP Name APP Frequency 119.4 MHZ
Type GND Name GND Frequency 125.9 MHZ
Type OPS Name OPS Frequency 132.7 MHZ
Type TWR Name TWR Frequency 118.7 MHZ

 AIRPORT NEAR NAVIGATION AIDS
Type TACAN Name Basrah Frequency 108300 KHZ
Type VOR-DME Name Basrah Frequency 112300 KHZ



Created by Rayan Sharara,

Powered by Virtual Airlines Manager [v2.6.2]